Acme, NC

9:24 AM EST on January 27, 2015 (GMT -0500)
Brunswick Forest | Change Station
CLOSE
Current Station
Personal Weather Station
Location: Leland, NC
Elevation: 39 ft
Nearby Weather Stations

Elev 39 ft 34.19 °N, 78.05 °W | Updated 11 minutes ago

Overcast
Overcast
36.1 °F
Feels Like 31 °F
N
6.8
Wind Variable Wind from North

Today
High -- | Low -- °F
--% Chance of Precip.
Yesterday
High -- | Low -- °F
Precip. -- in
7:14 AM 5:37 PM
First Quarter, 54% visible
Pressure 29.82 in
Visibility 10.0 miles
Clouds Overcast 3100 ft
Windchill 31 °F
Dew Point 35 °F
Humidity 95%
Rainfall 0.05 in
Snow Depth Not available.
UV 0 out of 12
Pollen 2.80 out of 12
Air Quality Not available.
Flu Activity Not available.
METAR KEYF 271415Z AUTO 32005KT 10SM OVC031 04/M03 A2982 RMK AO2 T00351027

More Conditions Fewer Conditions

Pressure 29.82 in
Visibility 10.0 miles
Clouds Overcast 3100 ft
Windchill 31 °F
Dew Point 35 °F
Humidity 95%
Rainfall 0.05 in
Snow Depth Not available.
UV 0 out of 12
Pollen 2.80 out of 12
Air Quality Not available.
Flu Activity Not available.
METAR KEYF 271415Z AUTO 32005KT 10SM OVC031 04/M03 A2982 RMK AO2 T00351027

More Conditions Fewer Conditions

10-Day Weather Forecast

Almanac

Astronomy

Jan. 27, 2015 Rise Set
Actual Time
Civil Twilight
Nautical Twilight
Astronomical Twilight
Moon
Length of Visible Light
Length of Day
Tomorrow will be .
, % of the Moon is Illuminated

Today's Extremes

State Highs State Lows

Community

WunderPhotos

Upload Photos

1,790,648 photos uploaded!

WunderBlogs® & News

Nearby

Air Quality

  Air Quality AQ Index Pollutant
Not available.

Snow Depth

Station Depth Elevation

Earthquake Activity

City Distance Mag. Time & Date
Minimum magnitude displayed is 2.5.

Coastal Water Temperatures

Place Temperature

Nearby Weather Stations